createdAt,value
2023-04-23T00:00:59.003Z,14.40
2023-04-23T00:03:30.400Z,14.40
2023-04-23T00:06:01.904Z,14.40
2023-04-23T00:08:33.906Z,14.30
2023-04-23T00:11:03.756Z,14.30
2023-04-23T00:13:35.558Z,14.30
2023-04-23T00:16:05.936Z,14.30
2023-04-23T00:18:34.751Z,14.30
2023-04-23T00:21:06.795Z,14.30
2023-04-23T00:23:37.355Z,14.30
2023-04-23T00:26:08.268Z,14.30
2023-04-23T00:28:38.359Z,14.30
2023-04-23T00:31:07.832Z,14.20
2023-04-23T00:33:39.114Z,14.20
2023-04-23T00:36:11.188Z,14.20
2023-04-23T00:38:41.677Z,14.20
2023-04-23T00:41:12.232Z,14.30
2023-04-23T00:43:42.844Z,14.30
2023-04-23T00:46:12.144Z,14.30
2023-04-23T00:48:43.384Z,14.30
2023-04-23T00:51:15.220Z,14.30
2023-04-23T00:53:45.187Z,14.30
2023-04-23T00:56:15.026Z,14.30
2023-04-23T00:58:44.293Z,14.30
2023-04-23T01:01:14.435Z,14.30
2023-04-23T01:03:45.506Z,14.30
2023-04-23T01:06:16.886Z,14.30
2023-04-23T01:08:51.051Z,14.40
2023-04-23T01:11:20.550Z,14.40
2023-04-23T01:13:49.477Z,14.40
2023-04-23T01:16:18.184Z,14.40
2023-04-23T01:18:47.530Z,14.30
2023-04-23T01:21:20.112Z,14.30
2023-04-23T01:23:51.556Z,14.30
2023-04-23T01:26:20.935Z,14.20
2023-04-23T01:28:50.210Z,14.20
2023-04-23T01:31:21.325Z,14.20
2023-04-23T01:33:52.766Z,14.10
2023-04-23T01:36:22.188Z,14.10
2023-04-23T01:38:53.160Z,14.00
2023-04-23T01:41:21.962Z,14.00
2023-04-23T01:43:52.229Z,13.90
2023-04-23T01:46:23.064Z,13.90
2023-04-23T01:48:52.204Z,13.90
2023-04-23T01:51:20.996Z,13.90
2023-04-23T01:53:51.415Z,13.80
2023-04-23T01:56:29.186Z,13.70
2023-04-23T01:58:59.881Z,13.70
2023-04-23T02:01:45.749Z,13.60
2023-04-23T02:04:17.267Z,13.60
2023-04-23T02:06:52.927Z,13.50
2023-04-23T02:09:24.963Z,13.50
2023-04-23T02:11:54.699Z,13.50
2023-04-23T02:14:24.776Z,13.40
2023-04-23T02:16:53.432Z,13.40
2023-04-23T02:19:24.304Z,13.30
2023-04-23T02:21:59.138Z,13.30
2023-04-23T02:24:31.001Z,13.30
2023-04-23T02:27:04.170Z,13.30
2023-04-23T02:29:32.558Z,13.30
2023-04-23T02:32:02.228Z,13.30
2023-04-23T02:34:32.220Z,13.20
2023-04-23T02:37:01.100Z,13.20
2023-04-23T02:39:31.354Z,13.20
2023-04-23T02:42:03.584Z,13.20
2023-04-23T02:44:32.747Z,13.20
2023-04-23T02:47:01.953Z,13.20
2023-04-23T02:49:30.772Z,13.10
2023-04-23T02:51:59.338Z,13.10
2023-04-23T02:54:32.732Z,13.10
2023-04-23T02:57:04.540Z,13.10
2023-04-23T02:59:34.327Z,13.10
2023-04-23T03:02:05.613Z,13.10
2023-04-23T03:04:36.715Z,13.10
2023-04-23T03:07:05.575Z,13.10
2023-04-23T03:09:43.013Z,13.10
2023-04-23T03:12:13.111Z,13.10
2023-04-23T03:14:42.430Z,13.00
2023-04-23T03:17:14.637Z,13.00
2023-04-23T03:19:47.433Z,13.00
2023-04-23T03:22:16.538Z,13.00
2023-04-23T03:24:48.181Z,13.00
2023-04-23T03:27:17.978Z,12.90
2023-04-23T03:29:47.441Z,12.90
2023-04-23T03:32:18.336Z,12.80
2023-04-23T03:34:47.556Z,12.80
2023-04-23T03:37:19.884Z,12.80
2023-04-23T03:39:50.328Z,12.70
2023-04-23T03:42:21.176Z,12.70
2023-04-23T03:44:56.149Z,12.70
2023-04-23T03:47:27.738Z,12.70
2023-04-23T03:49:59.053Z,12.70
2023-04-23T03:52:28.649Z,12.70
2023-04-23T03:55:04.312Z,12.70
2023-04-23T03:57:42.315Z,12.70
2023-04-23T04:00:32.559Z,12.60
2023-04-23T04:03:02.282Z,12.60
2023-04-23T04:05:32.262Z,12.60
2023-04-23T04:08:23.266Z,12.60
2023-04-23T04:10:54.466Z,12.50
2023-04-23T04:13:24.995Z,12.50
2023-04-23T04:15:53.720Z,12.50
2023-04-23T04:18:23.361Z,12.50
2023-04-23T04:20:53.720Z,12.40
2023-04-23T04:23:24.270Z,12.40
2023-04-23T04:25:56.603Z,12.40
2023-04-23T04:28:27.227Z,12.40
2023-04-23T04:30:57.771Z,12.40
2023-04-23T04:33:29.118Z,12.40
2023-04-23T04:35:59.835Z,12.40
2023-04-23T04:38:28.767Z,12.40
2023-04-23T04:41:00.475Z,12.40
2023-04-23T04:43:29.706Z,12.40
2023-04-23T04:46:02.043Z,12.40
2023-04-23T04:48:33.157Z,12.30
2023-04-23T04:51:09.724Z,12.30
2023-04-23T04:53:38.615Z,12.20
2023-04-23T04:56:10.292Z,12.30
2023-04-23T04:58:39.446Z,12.30
2023-04-23T05:01:10.248Z,12.30
2023-04-23T05:03:40.855Z,12.30
2023-04-23T05:06:10.421Z,12.30
2023-04-23T05:08:40.067Z,12.30
2023-04-23T05:11:11.304Z,12.30
2023-04-23T05:13:40.746Z,12.30
2023-04-23T05:16:10.001Z,12.30
2023-04-23T05:18:39.042Z,12.30
2023-04-23T05:21:09.425Z,12.30
2023-04-23T05:23:40.915Z,12.30
2023-04-23T05:26:11.649Z,12.30
2023-04-23T05:28:43.492Z,12.30
2023-04-23T05:31:13.204Z,12.40
2023-04-23T05:33:49.739Z,12.40
2023-04-23T05:36:19.882Z,12.50
2023-04-23T05:38:50.842Z,12.60
2023-04-23T05:41:21.666Z,12.70
2023-04-23T05:43:51.826Z,12.90
2023-04-23T05:46:22.083Z,13.10
2023-04-23T05:48:50.771Z,13.30
2023-04-23T05:51:20.250Z,13.40
2023-04-23T05:53:49.345Z,13.40
2023-04-23T05:56:19.619Z,13.50
2023-04-23T05:58:50.931Z,13.60
2023-04-23T06:01:21.387Z,13.60
2023-04-23T06:03:50.606Z,13.70
2023-04-23T06:06:21.902Z,13.70
2023-04-23T06:08:51.830Z,13.70
2023-04-23T06:11:22.118Z,13.70
2023-04-23T06:14:00.101Z,13.70
2023-04-23T06:16:29.946Z,13.70
2023-04-23T06:18:58.635Z,13.80
2023-04-23T06:21:29.151Z,13.80
2023-04-23T06:23:59.468Z,13.80
2023-04-23T06:26:29.078Z,13.80
2023-04-23T06:29:04.689Z,13.80
2023-04-23T06:31:42.030Z,13.80
2023-04-23T06:34:12.681Z,13.80
2023-04-23T06:36:43.737Z,13.80
2023-04-23T06:39:13.226Z,13.90
2023-04-23T06:41:43.363Z,13.90
2023-04-23T06:44:25.673Z,13.90
2023-04-23T06:46:54.684Z,14.00
2023-04-23T06:49:25.281Z,14.10
2023-04-23T06:51:57.546Z,14.30
2023-04-23T06:54:27.919Z,14.40
2023-04-23T06:56:56.945Z,14.40
2023-04-23T06:59:31.298Z,14.50
2023-04-23T07:02:03.467Z,14.40
2023-04-23T07:04:32.478Z,14.40
2023-04-23T07:07:04.797Z,14.50
2023-04-23T07:09:34.120Z,14.70
2023-04-23T07:12:03.420Z,14.80
2023-04-23T07:14:34.348Z,14.90
2023-04-23T07:17:03.464Z,15.00
2023-04-23T07:19:32.451Z,15.20
2023-04-23T07:22:02.173Z,15.30
2023-04-23T07:24:32.239Z,15.40
2023-04-23T07:27:01.225Z,15.50
2023-04-23T07:29:31.102Z,15.60
2023-04-23T07:32:02.000Z,15.80
2023-04-23T07:34:32.667Z,15.90
2023-04-23T07:37:02.409Z,16.00
2023-04-23T07:39:33.097Z,16.10
2023-04-23T07:42:03.372Z,16.10
2023-04-23T07:44:32.583Z,15.90
2023-04-23T07:47:02.790Z,15.90
2023-04-23T07:49:32.766Z,15.90
2023-04-23T07:52:02.098Z,15.80
2023-04-23T07:54:32.288Z,15.80
2023-04-23T07:57:01.724Z,15.80
2023-04-23T07:59:32.754Z,15.70
2023-04-23T08:02:07.227Z,15.80
2023-04-23T08:04:38.338Z,15.90
2023-04-23T08:07:08.665Z,16.10
2023-04-23T08:09:40.511Z,17.00
2023-04-23T08:12:12.054Z,18.10
2023-04-23T08:14:42.771Z,18.60
2023-04-23T08:17:19.956Z,18.50
2023-04-23T08:19:57.097Z,18.40
2023-04-23T08:22:27.896Z,18.20
2023-04-23T08:24:58.361Z,18.00
2023-04-23T08:27:27.623Z,17.80
2023-04-23T08:29:56.964Z,17.60
2023-04-23T08:32:29.504Z,17.40
2023-04-23T08:34:59.378Z,17.20
2023-04-23T08:37:31.229Z,17.00
2023-04-23T08:40:00.991Z,16.90
2023-04-23T08:42:43.907Z,16.80
2023-04-23T08:45:16.713Z,16.80
2023-04-23T08:47:49.537Z,16.70
2023-04-23T08:50:21.531Z,16.60
2023-04-23T08:52:55.503Z,16.40
2023-04-23T08:55:26.212Z,16.20
2023-04-23T08:57:55.409Z,16.20
2023-04-23T09:00:26.430Z,16.20
2023-04-23T09:02:57.747Z,16.20
2023-04-23T09:05:28.495Z,16.10
2023-04-23T09:08:00.253Z,16.10
2023-04-23T09:10:30.735Z,16.10
2023-04-23T09:13:01.846Z,16.10
2023-04-23T09:15:32.824Z,16.10
2023-04-23T09:18:06.257Z,16.10
2023-04-23T09:20:39.791Z,16.10
2023-04-23T09:23:10.049Z,16.00
2023-04-23T09:25:41.781Z,16.10
2023-04-23T09:28:12.100Z,16.20
2023-04-23T09:30:42.645Z,16.50
2023-04-23T09:33:17.288Z,16.80
2023-04-23T09:35:48.253Z,17.30
2023-04-23T09:38:18.335Z,17.70
2023-04-23T09:40:47.674Z,18.00
2023-04-23T09:43:21.542Z,18.20
2023-04-23T09:45:50.926Z,18.50
2023-04-23T09:48:23.510Z,18.80
2023-04-23T09:50:53.671Z,19.20
2023-04-23T09:53:22.659Z,19.80
2023-04-23T09:55:56.360Z,20.20
2023-04-23T09:58:29.684Z,20.70
2023-04-23T10:01:10.257Z,20.80
2023-04-23T10:03:45.782Z,21.10
2023-04-23T10:06:25.888Z,21.30
2023-04-23T10:09:05.907Z,21.50
2023-04-23T10:11:34.453Z,21.80
2023-04-23T10:14:03.353Z,22.80
2023-04-23T10:16:42.356Z,23.90
2023-04-23T10:19:22.641Z,25.00
2023-04-23T10:22:05.203Z,25.90
2023-04-23T10:24:58.458Z,26.20
2023-04-23T10:27:44.601Z,26.20
2023-04-23T10:30:21.012Z,26.70
2023-04-23T10:32:50.963Z,26.20
2023-04-23T10:35:20.689Z,25.60
2023-04-23T10:37:56.136Z,25.60
2023-04-23T10:40:34.671Z,25.70
2023-04-23T10:43:03.870Z,25.60
2023-04-23T10:45:33.597Z,26.00
2023-04-23T10:48:06.027Z,25.80
2023-04-23T10:50:42.955Z,25.90
2023-04-23T10:53:21.992Z,25.80
2023-04-23T10:55:52.705Z,25.50
2023-04-23T10:58:24.793Z,25.30
2023-04-23T11:00:54.210Z,25.10
2023-04-23T11:03:44.473Z,24.80
2023-04-23T11:06:22.694Z,24.50
2023-04-23T11:08:55.160Z,24.60
2023-04-23T11:11:41.278Z,24.90
2023-04-23T11:14:15.682Z,25.90
2023-04-23T11:16:45.551Z,26.30
2023-04-23T11:19:20.406Z,26.90
2023-04-23T11:22:01.455Z,27.40
2023-04-23T11:24:42.879Z,27.10
2023-04-23T11:27:15.845Z,26.60
2023-04-23T11:29:46.426Z,26.20
2023-04-23T11:32:19.304Z,26.20
2023-04-23T11:34:50.573Z,26.90
2023-04-23T11:37:21.741Z,27.70
2023-04-23T11:39:57.110Z,28.10
2023-04-23T11:42:26.335Z,28.20
2023-04-23T11:44:55.568Z,27.90
2023-04-23T11:47:27.991Z,27.60
2023-04-23T11:49:57.075Z,27.50
2023-04-23T11:52:28.400Z,27.40
2023-04-23T11:54:58.118Z,26.60
2023-04-23T11:57:27.004Z,26.30
2023-04-23T11:59:55.825Z,26.10
2023-04-23T12:02:26.822Z,25.90
2023-04-23T12:04:56.142Z,26.10
2023-04-23T12:07:36.684Z,26.40
2023-04-23T12:10:07.448Z,26.00
2023-04-23T12:12:36.744Z,26.20
2023-04-23T12:15:08.782Z,26.80
2023-04-23T12:17:38.726Z,27.30
2023-04-23T12:20:13.833Z,28.10
2023-04-23T12:22:43.939Z,28.50
2023-04-23T12:25:14.347Z,28.30
2023-04-23T12:27:47.928Z,28.60
2023-04-23T12:30:19.632Z,29.00
2023-04-23T12:32:48.801Z,29.40
2023-04-23T12:35:18.261Z,29.60
2023-04-23T12:37:53.839Z,29.00
2023-04-23T12:40:23.399Z,28.50
2023-04-23T12:42:55.321Z,27.90
2023-04-23T12:45:24.384Z,27.10
2023-04-23T12:47:53.662Z,27.00
2023-04-23T12:50:26.170Z,27.90
2023-04-23T12:52:58.846Z,28.30
2023-04-23T12:55:31.269Z,28.60
2023-04-23T12:58:01.672Z,29.20
2023-04-23T13:00:31.753Z,29.60
2023-04-23T13:03:02.758Z,29.40
2023-04-23T13:05:32.140Z,29.20
2023-04-23T13:08:09.441Z,28.50
2023-04-23T13:10:39.988Z,28.50
2023-04-23T13:13:09.019Z,28.60
2023-04-23T13:15:39.806Z,28.50
2023-04-23T13:18:08.941Z,28.30
2023-04-23T13:20:37.716Z,27.50
2023-04-23T13:23:12.318Z,28.20
2023-04-23T13:25:43.884Z,28.20
2023-04-23T13:28:13.831Z,27.80
2023-04-23T13:30:43.326Z,27.30
2023-04-23T13:33:14.843Z,27.70
2023-04-23T13:35:46.336Z,28.30
2023-04-23T13:38:19.166Z,29.00
2023-04-23T13:40:47.990Z,29.60
2023-04-23T13:43:19.794Z,29.80
2023-04-23T13:45:50.423Z,30.00
2023-04-23T13:48:21.384Z,30.30
2023-04-23T13:50:50.660Z,29.90
2023-04-23T13:53:21.555Z,29.30
2023-04-23T13:55:50.107Z,29.10
2023-04-23T13:58:19.123Z,29.20
2023-04-23T14:00:47.817Z,29.60
2023-04-23T14:03:23.926Z,29.30
2023-04-23T14:05:57.430Z,27.90
2023-04-23T14:08:28.784Z,27.20
2023-04-23T14:11:08.618Z,27.60
2023-04-23T14:13:47.142Z,27.50
2023-04-23T14:16:26.708Z,26.90
2023-04-23T14:19:04.976Z,27.30
2023-04-23T14:21:36.515Z,27.60
2023-04-23T14:24:14.147Z,27.90
2023-04-23T14:26:49.320Z,27.70
2023-04-23T14:29:31.880Z,27.40
2023-04-23T14:32:04.008Z,27.40
2023-04-23T14:34:37.219Z,27.00
2023-04-23T14:37:06.425Z,27.10
2023-04-23T14:39:37.460Z,27.20
2023-04-23T14:42:09.834Z,26.50
2023-04-23T14:44:42.619Z,26.50
2023-04-23T14:47:13.303Z,26.20
2023-04-23T14:49:43.139Z,25.90
2023-04-23T14:52:15.180Z,25.90
2023-04-23T14:54:47.556Z,25.90
2023-04-23T14:57:19.031Z,25.60
2023-04-23T14:59:52.653Z,25.60
2023-04-23T15:02:25.333Z,25.60
2023-04-23T15:04:56.387Z,25.40
2023-04-23T15:07:25.939Z,24.90
2023-04-23T15:09:56.641Z,24.30
2023-04-23T15:12:52.968Z,24.10
2023-04-23T15:15:41.128Z,23.80
2023-04-23T15:18:17.159Z,23.70
2023-04-23T15:20:48.074Z,23.50
2023-04-23T15:23:21.582Z,23.20
2023-04-23T15:25:54.067Z,23.20
2023-04-23T15:28:24.039Z,23.00
2023-04-23T15:30:55.468Z,22.60
2023-04-23T15:33:24.749Z,22.30
2023-04-23T15:35:53.641Z,22.10
2023-04-23T15:38:24.292Z,21.90
2023-04-23T15:40:54.333Z,21.60
2023-04-23T15:43:23.569Z,21.50
2023-04-23T15:45:55.503Z,21.50
2023-04-23T15:48:25.176Z,21.50
2023-04-23T15:50:55.178Z,21.60
2023-04-23T15:53:24.180Z,21.70
2023-04-23T15:55:58.066Z,21.80
2023-04-23T15:58:28.719Z,21.80
2023-04-23T16:00:58.887Z,21.70
2023-04-23T16:03:29.410Z,21.60
2023-04-23T16:05:59.349Z,21.50
2023-04-23T16:08:33.403Z,21.40
2023-04-23T16:11:08.745Z,21.30
2023-04-23T16:13:41.000Z,21.10
2023-04-23T16:16:10.050Z,20.90
2023-04-23T16:18:41.801Z,20.60
2023-04-23T16:21:11.729Z,20.10
2023-04-23T16:23:46.139Z,19.80
2023-04-23T16:26:27.565Z,19.60
2023-04-23T16:29:16.848Z,19.30
2023-04-23T16:31:45.474Z,19.30
2023-04-23T16:34:14.867Z,19.10
2023-04-23T16:36:47.732Z,19.00
2023-04-23T16:39:18.276Z,18.90
2023-04-23T16:41:50.227Z,18.90
2023-04-23T16:44:20.829Z,18.70
2023-04-23T16:46:50.961Z,18.50
2023-04-23T16:49:20.924Z,18.30
2023-04-23T16:51:50.155Z,18.20
2023-04-23T16:54:19.722Z,18.00
2023-04-23T16:56:50.206Z,18.00
2023-04-23T16:59:20.647Z,17.90
2023-04-23T17:01:49.447Z,17.70
2023-04-23T17:04:19.322Z,17.50
2023-04-23T17:06:49.619Z,17.10
2023-04-23T17:09:20.547Z,16.70
2023-04-23T17:11:50.359Z,16.30
2023-04-23T17:14:19.146Z,16.00
2023-04-23T17:16:51.593Z,15.80
2023-04-23T17:19:21.416Z,15.50
2023-04-23T17:21:52.889Z,15.50
2023-04-23T17:24:25.675Z,15.50
2023-04-23T17:26:56.468Z,15.40
2023-04-23T17:29:25.282Z,15.20
2023-04-23T17:31:55.020Z,15.10
2023-04-23T17:34:29.988Z,15.10
2023-04-23T17:37:03.258Z,15.10
2023-04-23T17:39:33.329Z,15.10
2023-04-23T17:42:03.489Z,15.00
2023-04-23T17:44:33.533Z,15.00
2023-04-23T17:47:03.741Z,14.90
2023-04-23T17:49:32.795Z,14.80
2023-04-23T17:52:03.855Z,14.70
2023-04-23T17:54:39.253Z,14.60
2023-04-23T17:57:12.680Z,14.60
2023-04-23T17:59:42.597Z,14.60
2023-04-23T18:02:13.638Z,14.50
2023-04-23T18:04:49.741Z,14.50
2023-04-23T18:07:19.218Z,14.40
2023-04-23T18:09:48.404Z,14.40
2023-04-23T18:12:18.639Z,14.40
2023-04-23T18:14:47.680Z,14.40
2023-04-23T18:17:17.545Z,14.40
2023-04-23T18:19:50.444Z,14.40
2023-04-23T18:22:20.237Z,14.30
2023-04-23T18:24:52.817Z,14.30
2023-04-23T18:27:27.208Z,14.20
2023-04-23T18:29:58.844Z,14.20
2023-04-23T18:32:34.555Z,14.10
2023-04-23T18:35:08.533Z,14.10
2023-04-23T18:37:50.064Z,14.00
2023-04-23T18:40:19.130Z,14.00
2023-04-23T18:42:50.873Z,13.90
2023-04-23T18:45:21.053Z,13.90
2023-04-23T18:47:53.758Z,13.80
2023-04-23T18:50:46.409Z,13.80
2023-04-23T18:53:17.154Z,13.80
2023-04-23T18:55:46.232Z,13.70
2023-04-23T18:58:18.004Z,13.80
2023-04-23T19:00:47.232Z,13.70
2023-04-23T19:03:26.107Z,13.70
2023-04-23T19:05:56.663Z,13.70
2023-04-23T19:08:28.932Z,13.70
2023-04-23T19:10:58.555Z,13.60
2023-04-23T19:13:29.556Z,13.60
2023-04-23T19:15:58.636Z,13.60
2023-04-23T19:18:29.171Z,13.60
2023-04-23T19:20:59.170Z,13.50
2023-04-23T19:23:27.901Z,13.60
2023-04-23T19:25:58.178Z,13.60
2023-04-23T19:28:28.501Z,13.60
2023-04-23T19:30:58.330Z,13.60
2023-04-23T19:33:45.747Z,13.60
2023-04-23T19:36:16.323Z,13.60
2023-04-23T19:38:46.815Z,13.60
2023-04-23T19:41:19.982Z,13.60
2023-04-23T19:43:53.100Z,13.60
2023-04-23T19:46:24.885Z,13.60
2023-04-23T19:48:55.151Z,13.70
2023-04-23T19:51:35.212Z,13.80
2023-04-23T19:54:06.254Z,13.80
2023-04-23T19:56:38.621Z,13.90
2023-04-23T19:59:13.871Z,14.00
2023-04-23T20:01:43.439Z,14.00
2023-04-23T20:04:12.401Z,14.00
2023-04-23T20:06:44.982Z,14.00
2023-04-23T20:09:22.880Z,13.90
2023-04-23T20:11:53.696Z,13.80
2023-04-23T20:14:26.718Z,13.80
2023-04-23T20:16:58.496Z,13.70
2023-04-23T20:19:27.370Z,13.70
2023-04-23T20:21:56.871Z,13.60
2023-04-23T20:24:26.429Z,13.50
2023-04-23T20:26:56.900Z,13.50
2023-04-23T20:29:29.783Z,13.30
2023-04-23T20:32:00.655Z,13.20
2023-04-23T20:34:32.006Z,13.10
2023-04-23T20:37:04.000Z,13.10
2023-04-23T20:39:34.971Z,13.00
2023-04-23T20:42:09.002Z,12.90
2023-04-23T20:44:43.013Z,12.90
2023-04-23T20:47:14.837Z,12.90
2023-04-23T20:49:47.586Z,12.90
2023-04-23T20:52:16.965Z,12.90
2023-04-23T20:54:47.781Z,12.80
2023-04-23T20:57:17.972Z,12.80
2023-04-23T20:59:52.394Z,12.70
2023-04-23T21:02:23.323Z,12.70
2023-04-23T21:04:52.449Z,12.70
2023-04-23T21:07:23.305Z,12.70
2023-04-23T21:09:52.433Z,12.60
2023-04-23T21:12:22.587Z,12.60
2023-04-23T21:14:52.895Z,12.50
2023-04-23T21:17:22.111Z,12.50
2023-04-23T21:19:53.872Z,12.50
2023-04-23T21:22:25.083Z,12.40
2023-04-23T21:24:56.505Z,12.40
2023-04-23T21:27:28.369Z,12.40
2023-04-23T21:30:02.506Z,12.30
2023-04-23T21:32:35.424Z,12.30
2023-04-23T21:35:06.337Z,12.30
2023-04-23T21:37:38.037Z,12.30
2023-04-23T21:40:14.502Z,12.30
2023-04-23T21:42:46.170Z,12.30
2023-04-23T21:45:19.123Z,12.20
2023-04-23T21:47:49.740Z,12.10
2023-04-23T21:50:22.203Z,12.20
2023-04-23T21:52:53.760Z,12.10
2023-04-23T21:55:22.631Z,12.10
2023-04-23T21:57:55.007Z,12.00
2023-04-23T22:00:29.797Z,12.00
2023-04-23T22:02:58.872Z,12.00
2023-04-23T22:05:28.644Z,12.00
2023-04-23T22:08:01.322Z,12.00
2023-04-23T22:10:30.251Z,11.90
2023-04-23T22:13:00.602Z,11.90
2023-04-23T22:15:31.732Z,11.90
2023-04-23T22:18:01.293Z,11.90
2023-04-23T22:20:34.639Z,11.90
2023-04-23T22:23:11.675Z,12.00
2023-04-23T22:25:41.803Z,11.90
2023-04-23T22:28:11.916Z,11.90
2023-04-23T22:30:44.168Z,11.90
2023-04-23T22:33:13.378Z,12.00
2023-04-23T22:35:43.456Z,11.90
2023-04-23T22:38:13.031Z,11.90
2023-04-23T22:40:41.965Z,11.90
2023-04-23T22:43:13.104Z,11.90
2023-04-23T22:45:51.076Z,12.00
2023-04-23T22:48:21.600Z,12.00
2023-04-23T22:50:51.646Z,12.00
2023-04-23T22:53:22.433Z,12.00
2023-04-23T22:55:51.808Z,12.00
2023-04-23T22:58:22.725Z,12.00
2023-04-23T23:00:53.813Z,11.90
2023-04-23T23:03:23.901Z,11.90
2023-04-23T23:05:53.329Z,11.90
2023-04-23T23:08:25.615Z,11.90
2023-04-23T23:10:57.975Z,11.90
2023-04-23T23:13:29.564Z,11.90
2023-04-23T23:16:05.203Z,11.80
2023-04-23T23:18:35.408Z,11.80
2023-04-23T23:21:04.718Z,11.80
2023-04-23T23:23:33.924Z,11.90
2023-04-23T23:26:02.749Z,11.90
2023-04-23T23:28:32.473Z,11.90
2023-04-23T23:31:04.838Z,11.90
2023-04-23T23:33:36.562Z,11.90
2023-04-23T23:36:08.405Z,11.90
2023-04-23T23:38:37.456Z,11.90
2023-04-23T23:41:07.107Z,11.90
2023-04-23T23:43:36.315Z,12.00
2023-04-23T23:46:09.160Z,11.90
2023-04-23T23:48:40.168Z,11.90
2023-04-23T23:51:09.152Z,12.00
2023-04-23T23:53:39.545Z,12.00
2023-04-23T23:56:09.300Z,12.00
2023-04-23T23:58:38.220Z,11.90
